Používaním stránok prevádzkovaných PROFIPILOT, s.r.o. súhlasíte s používaním cookies, ktoré nám pomáhajú zabezpečiť lepšie služby.OK

Briefing

MAPA | METAR | TAF | METEO SITUÁCIA
MAPA | METAR | TAF | METEO SITUÁCIA

Predpoveď na dnes

Oblačno až zamračené a na mnohých miestach dážď alebo prehánky. Na hrebeňoch Tatier sneženie. Najvyššia denná teplota 10 až 16, na juhovýchode do 20 st. Teplota na horách vo výške 1500 m okolo 5 st. Prevažne severný až severovýchodný vietor 2 až 6 m/s (5 až 20 km/h). Predpokladané množstvo zrážok: do 7 mm.

SHMÚ, OMPaV, JP 19.9.2017 12:40 LSEČ

MAPA | METAR | TAF | METEO SITUÁCIA

TAF - Letisková predpoveď

19.09.2017 - 17:00 UTC

TAF LZSL 191700Z 1918/2003 01005KT 9999 -RA FEW007 SCT040 OVC080
     TEMPO 1920/2000 4000 RA SCT005 BKN020 OVC070
     PROB40 2000/2003 0700 FG BKN003=
 TAF LZPP 191700Z 1918/2003 36010KT 9999 -RA FEW023 OVC060
     TEMPO 1922/2003 01015G25KT 8000 RA SCT012 BKN020 OVC060=
 TAF LZZI 191700Z 1918/2003 06004KT 9999 -RA FEW010 BKN037 OVC060
     TEMPO 1919/2003 4000 RA SCT005 BKN020 OVC050=
 

19.09.2017 - 17:00 UTC

TAF LZIB 191700Z 1918/2018 34007KT 9999 -RA FEW010 SCT030 OVC050
     TEMPO 1918/1922 4000 RA SCT008 BKN020 OVC050
     BECMG 2000/2002 35013KT 8000 RA SCT005 OVC025
     BECMG 2008/2010 35015G25KT 9999 -RA SCT027 BKN043
     BECMG 2012/2014 -SHRA SCT025 SCT080=
 TAF LZKZ 191700Z 1918/2018 36013KT 9999 SCT040 BKN060
     TEMPO 1922/2004 02008KT -RA FEW010 BKN035=
 TAF LZTT 191700Z 1918/2018 04007KT 9999 -RA SCT015 BKN037 OVC070
     TEMPO 1919/2002 07004KT 7000 RA BKN010 OVC030
     BECMG 2002/2004 13002KT 2000 BCFG SCT002 BKN010
     BECMG 2007/2009 06008KT 9999 FEW017 SCT030
     TEMPO 2010/2015 -SHRA=
 

19.09.2017 - 14:00 UTC

TAF LZSL 191400Z 1915/2000 01005KT 9999 -RA FEW007 SCT040 OVC080
     PROB30 TEMPO 1915/1918 4000 RA BR SCT005 BKN020 OVC070=
 TAF LZPP 191400Z 1915/2000 01010KT 9999 BKN040 BKN070
     TEMPO 1915/1920 -RA FEW005 SCT040 OVC050
     BECMG 1922/2000 01015G25KT=
 TAF LZZI 191400Z 1915/2000 06004KT 9999 -RA FEW005 BKN030 OVC060
     PROB40 TEMPO 1915/1920 4000 RA BR SCT005 BKN020 OVC050=
 

19.09.2017 - 11:00 UTC

TAF LZIB 191100Z 1912/2012 01008KT 9999 -RA FEW010 SCT030 OVC050
     TEMPO 1918/1922 35004KT 4000 RA SCT008 BKN020 OVC050
     BECMG 2000/2002 35013KT 8000 RA SCT005 OVC025
     BECMG 2008/2010 35015G25KT 9999 -RA SCT027 BKN043=
 TAF LZKZ 191100Z 1912/2012 02015KT 9999 SCT040 BKN060
     TEMPO 1922/2004 -RA FEW010 BKN035=
 TAF LZTT 191100Z 1912/2012 04007KT 9999 -RA SCT030 OVC090
     TEMPO 1912/1918 04012KT 7000 RA SCT012 BKN030 OVC080
     BECMG 2001/2003 13002KT 3000 BCFG SCT002 BKN012
     BECMG 2006/2008 08002KT 8000 -SHRA SCT007 BKN023=
 

19.09.2017 - 11:00 UTC

TAF LZSL 191100Z 1912/1921 01005KT 9999 -RA FEW007 SCT050 OVC080
     PROB30 TEMPO 1912/1917 4000 RA BR SCT005 BKN020 OVC070=
 TAF LZPP 191100Z 1912/1921 01009KT 9999 -RA FEW007 BKN035 OVC070
     TEMPO 1912/1918 4000 RA BR SCT005 BKN025 OVC050=
 TAF LZZI 191100Z 1912/1921 06004KT 9999 -RA FEW005 BKN040 OVC060
     PROB30 TEMPO 1912/1918 4000 RA BR SCT005 BKN025 OVC050=
 

19.09.2017 - 08:00 UTC

TAF LZSL 190800Z 1909/1918 01005KT 9999 -RA FEW007 SCT050 OVC080
     PROB30 TEMPO 1911/1918 4000 RA BR SCT005 BKN020 OVC070=
 TAF LZPP 190800Z 1909/1918 01008KT 9999 -RA FEW007 SCT040 OVC090
     TEMPO 1911/1918 4000 RA BR SCT005 BKN025 OVC050=
 TAF LZZI 190800Z 1909/1918 06005KT 9999 SCT050 BKN090
     TEMPO 1909/1918 8000 -RA FEW005 BKN040 OVC050=
 

19.09.2017 - 05:00 UTC

TAF LZSL 190500Z 1906/1915 04004KT 9999 SCT050 BKN080
     TEMPO 1908/1915 01008KT -RA BKN040=
 TAF LZPP 190500Z 1906/1915 01005KT 9999 SCT040 BKN090
     TEMPO 1908/1915 BKN035=
 TAF LZZI 190500Z 1906/1915 06005KT 9999 SCT050 BKN090
     TEMPO 1909/1915 -RA BKN035=
 

19.09.2017 - 05:00 UTC

TAF LZIB 190500Z 1906/2006 34004KT 9999 -RA SCT035 BKN050
     BECMG 1910/1912 02010KT
     TEMPO 1918/2006 4000 RA BR BKN008 BKN020=
 TAF LZKZ 190500Z 1906/2006 02005KT CAVOK
     BECMG 1907/1909 01015KT 9999 SCT040 BKN060
     TEMPO 1909/1915 -RA BKN035
     TEMPO 1922/2006 -RA SCT010 BKN025=
 TAF LZTT 190500Z 1906/2006 28004KT 9999 FEW050 SCT100
     BECMG 1907/1909 06006KT BKN040
     TEMPO 1909/2000 -RA SCT012 BKN020
     BECMG 2000/2002 VRB02KT 5000 BR SCT002 BKN012=
 

19.09.2017 - 02:00 UTC

TAF LZSL 190200Z 1903/1912 04004KT CAVOK
     BECMG 1904/1906 9999 FEW040 BKN080
     TEMPO 1908/1912 01008KT -RA BKN030=
 TAF LZZI 190200Z 1903/1912 VRB02KT CAVOK
     TEMPO 1903/1906 4000 BR SCT004 SCT080
     BECMG 1905/1907 9999 SCT040 BKN080=
 
MAPA | METAR | TAF | METEO SITUÁCIA

METAR - Letisková meteo správa

Letisková meteorologická správa METAR

Meteorologické informácie z ďalších profesionálnych meteorologických staníc SHMÚ zobrazené v tvare zodpovedajúcom pravidlám kódovania správ METAR sú uvedené v položke „METSYN Informácie o správe METAR

19.09.2017 - 18:30 UTC

METAR LZIB 191830Z 32005KT 9999 -RA FEW011 SCT048 OVC068 12/11
 Q1012=
 METAR LZKZ 191830Z 36010KT CAVOK 14/10 Q1011=
 METAR LZPP 191830Z 35008KT 9999 -RA SCT020 OVC055 13/10 Q1012=
 METAR LZSL 191830Z 05004KT 9999 -RA OVC040 12/10 Q1012=
 METAR LZTT 191830Z 08004KT 040V130 9999 -RA SCT015 BKN034 OVC053
 09/08 Q1012=
 METAR LZZI 191830Z 10003KT 9999 -RA FEW008 SCT041 BKN060 11/10
 Q1013=
 

19.09.2017 - 18:00 UTC

METAR LZIB 191800Z 30005KT 9999 -RA FEW011 SCT046 OVC062 12/11 Q1012
 NOSIG=
 METAR LZKZ 191800Z 36012KT CAVOK 14/10 Q1011=
 METAR LZPP 191800Z 35009KT 9999 SCT020 OVC055 13/10 Q1012=
 METAR LZSL 191800Z 04005KT 010V070 9999 -RA OVC055 12/10 Q1012=
 METAR LZTT 191800Z 05005KT 9999 FEW015 BKN034 OVC053 09/08 Q1013=
 METAR LZZI 191800Z 07006KT 9999 -RA FEW008 SCT041 BKN060 11/10
 Q1013=
 

19.09.2017 - 18:00 UTC

METAR LZMC 191800Z 33004KT 3000 RA FEW004 BKN007 OVC012
 11/10 Q1013=
 METAR LZPW 191800Z 36006KT 9999 FEW012 SCT021 OVC080
 13/10 Q1012=
 
načítavam...